sensor_id;sensor_type;location;lat;lon;timestamp;P1;durP1;ratioP1;P2;durP2;ratioP2
33268;SDS011;19640;50.944;5.260;2023-04-24T00:00:08;8.75;;;7.85;;
33268;SDS011;19640;50.944;5.260;2023-04-24T00:02:34;11.68;;;9.07;;
33268;SDS011;19640;50.944;5.260;2023-04-24T00:05:03;10.13;;;8.27;;
33268;SDS011;19640;50.944;5.260;2023-04-24T00:07:32;10.73;;;9.10;;
33268;SDS011;19640;50.944;5.260;2023-04-24T00:09:59;11.30;;;9.85;;
33268;SDS011;19640;50.944;5.260;2023-04-24T00:12:25;11.70;;;8.70;;
33268;SDS011;19640;50.944;5.260;2023-04-24T00:14:52;11.55;;;9.40;;
33268;SDS011;19640;50.944;5.260;2023-04-24T00:17:18;11.13;;;9.65;;
33268;SDS011;19640;50.944;5.260;2023-04-24T00:19:46;13.20;;;10.00;;
33268;SDS011;19640;50.944;5.260;2023-04-24T00:22:12;10.57;;;9.30;;
33268;SDS011;19640;50.944;5.260;2023-04-24T00:24:38;12.93;;;10.27;;
33268;SDS011;19640;50.944;5.260;2023-04-24T00:27:04;11.75;;;9.90;;
33268;SDS011;19640;50.944;5.260;2023-04-24T00:29:30;13.82;;;9.25;;
33268;SDS011;19640;50.944;5.260;2023-04-24T00:31:55;16.08;;;9.43;;
33268;SDS011;19640;50.944;5.260;2023-04-24T00:34:21;13.85;;;10.18;;
33268;SDS011;19640;50.944;5.260;2023-04-24T00:36:47;14.20;;;11.13;;
33268;SDS011;19640;50.944;5.260;2023-04-24T00:39:15;15.88;;;10.02;;
33268;SDS011;19640;50.944;5.260;2023-04-24T00:41:40;17.15;;;11.00;;
33268;SDS011;19640;50.944;5.260;2023-04-24T00:44:06;13.73;;;11.15;;
33268;SDS011;19640;50.944;5.260;2023-04-24T00:46:32;23.95;;;11.45;;
33268;SDS011;19640;50.944;5.260;2023-04-24T00:48:58;15.82;;;11.77;;
33268;SDS011;19640;50.944;5.260;2023-04-24T00:51:24;14.27;;;10.93;;
33268;SDS011;19640;50.944;5.260;2023-04-24T00:53:50;17.45;;;12.15;;
33268;SDS011;19640;50.944;5.260;2023-04-24T00:56:17;18.15;;;12.02;;
33268;SDS011;19640;50.944;5.260;2023-04-24T00:58:43;14.23;;;12.35;;
33268;SDS011;19640;50.944;5.260;2023-04-24T01:01:09;22.08;;;13.00;;
33268;SDS011;19640;50.944;5.260;2023-04-24T01:03:36;15.65;;;12.20;;
33268;SDS011;19640;50.944;5.260;2023-04-24T01:06:02;17.00;;;12.30;;
33268;SDS011;19640;50.944;5.260;2023-04-24T01:08:29;20.13;;;12.40;;
33268;SDS011;19640;50.944;5.260;2023-04-24T01:10:55;16.98;;;11.65;;
33268;SDS011;19640;50.944;5.260;2023-04-24T01:13:22;14.95;;;11.63;;
33268;SDS011;19640;50.944;5.260;2023-04-24T01:15:48;15.43;;;12.45;;
33268;SDS011;19640;50.944;5.260;2023-04-24T01:18:14;16.75;;;12.32;;
33268;SDS011;19640;50.944;5.260;2023-04-24T01:20:41;16.15;;;11.80;;
33268;SDS011;19640;50.944;5.260;2023-04-24T01:23:08;18.08;;;12.23;;
33268;SDS011;19640;50.944;5.260;2023-04-24T01:25:35;18.20;;;13.07;;
33268;SDS011;19640;50.944;5.260;2023-04-24T01:28:01;14.85;;;12.38;;
33268;SDS011;19640;50.944;5.260;2023-04-24T01:30:28;16.02;;;12.32;;
33268;SDS011;19640;50.944;5.260;2023-04-24T01:32:54;18.55;;;13.15;;
33268;SDS011;19640;50.944;5.260;2023-04-24T01:35:21;21.58;;;11.88;;
33268;SDS011;19640;50.944;5.260;2023-04-24T01:37:47;13.73;;;10.52;;
33268;SDS011;19640;50.944;5.260;2023-04-24T01:40:13;18.08;;;12.23;;
33268;SDS011;19640;50.944;5.260;2023-04-24T01:42:40;19.10;;;12.13;;
33268;SDS011;19640;50.944;5.260;2023-04-24T01:45:06;18.48;;;12.07;;
33268;SDS011;19640;50.944;5.260;2023-04-24T01:47:35;16.52;;;12.27;;
33268;SDS011;19640;50.944;5.260;2023-04-24T01:50:01;16.73;;;11.68;;
33268;SDS011;19640;50.944;5.260;2023-04-24T01:52:27;19.10;;;11.73;;
33268;SDS011;19640;50.944;5.260;2023-04-24T01:54:56;18.73;;;11.80;;
33268;SDS011;19640;50.944;5.260;2023-04-24T01:57:24;20.20;;;12.88;;
33268;SDS011;19640;50.944;5.260;2023-04-24T01:59:50;29.65;;;14.52;;
33268;SDS011;19640;50.944;5.260;2023-04-24T02:02:16;21.85;;;12.80;;
33268;SDS011;19640;50.944;5.260;2023-04-24T02:04:43;16.88;;;12.15;;
33268;SDS011;19640;50.944;5.260;2023-04-24T02:07:08;16.38;;;11.30;;
33268;SDS011;19640;50.944;5.260;2023-04-24T02:09:34;17.40;;;11.98;;
33268;SDS011;19640;50.944;5.260;2023-04-24T02:12:00;17.50;;;13.05;;
33268;SDS011;19640;50.944;5.260;2023-04-24T02:14:25;17.50;;;12.55;;
33268;SDS011;19640;50.944;5.260;2023-04-24T02:16:51;19.45;;;12.43;;
33268;SDS011;19640;50.944;5.260;2023-04-24T02:19:18;19.65;;;11.98;;
33268;SDS011;19640;50.944;5.260;2023-04-24T02:21:44;16.20;;;12.90;;
33268;SDS011;19640;50.944;5.260;2023-04-24T02:24:10;17.08;;;12.35;;
33268;SDS011;19640;50.944;5.260;2023-04-24T02:26:35;18.40;;;12.88;;
33268;SDS011;19640;50.944;5.260;2023-04-24T02:29:01;12.75;;;11.30;;
33268;SDS011;19640;50.944;5.260;2023-04-24T02:31:27;17.00;;;12.25;;
33268;SDS011;19640;50.944;5.260;2023-04-24T02:33:53;13.15;;;11.10;;
33268;SDS011;19640;50.944;5.260;2023-04-24T02:36:18;14.10;;;11.82;;
33268;SDS011;19640;50.944;5.260;2023-04-24T02:38:44;19.20;;;12.25;;
33268;SDS011;19640;50.944;5.260;2023-04-24T02:41:10;14.68;;;12.20;;
33268;SDS011;19640;50.944;5.260;2023-04-24T02:43:36;14.57;;;11.00;;
33268;SDS011;19640;50.944;5.260;2023-04-24T02:46:02;14.50;;;11.07;;
33268;SDS011;19640;50.944;5.260;2023-04-24T02:48:27;11.88;;;10.43;;
33268;SDS011;19640;50.944;5.260;2023-04-24T02:50:53;13.30;;;11.20;;
33268;SDS011;19640;50.944;5.260;2023-04-24T02:53:19;17.73;;;11.07;;
33268;SDS011;19640;50.944;5.260;2023-04-24T02:55:45;12.52;;;9.90;;
33268;SDS011;19640;50.944;5.260;2023-04-24T02:58:11;13.18;;;10.90;;
33268;SDS011;19640;50.944;5.260;2023-04-24T03:00:38;13.82;;;11.40;;
33268;SDS011;19640;50.944;5.260;2023-04-24T03:03:04;20.10;;;11.52;;
33268;SDS011;19640;50.944;5.260;2023-04-24T03:05:30;13.48;;;12.10;;
33268;SDS011;19640;50.944;5.260;2023-04-24T03:07:56;13.38;;;11.57;;
33268;SDS011;19640;50.944;5.260;2023-04-24T03:10:22;14.02;;;12.35;;
33268;SDS011;19640;50.944;5.260;2023-04-24T03:12:48;14.40;;;12.15;;
33268;SDS011;19640;50.944;5.260;2023-04-24T03:15:14;14.27;;;12.48;;
33268;SDS011;19640;50.944;5.260;2023-04-24T03:17:40;14.32;;;11.77;;
33268;SDS011;19640;50.944;5.260;2023-04-24T03:20:06;16.95;;;12.48;;
33268;SDS011;19640;50.944;5.260;2023-04-24T03:22:34;14.30;;;12.77;;
33268;SDS011;19640;50.944;5.260;2023-04-24T03:25:00;16.55;;;12.00;;
33268;SDS011;19640;50.944;5.260;2023-04-24T03:27:26;14.98;;;13.10;;
33268;SDS011;19640;50.944;5.260;2023-04-24T03:29:52;18.55;;;12.80;;
33268;SDS011;19640;50.944;5.260;2023-04-24T03:32:20;14.02;;;11.93;;
33268;SDS011;19640;50.944;5.260;2023-04-24T03:34:50;16.30;;;12.88;;
33268;SDS011;19640;50.944;5.260;2023-04-24T03:37:16;17.15;;;11.70;;
33268;SDS011;19640;50.944;5.260;2023-04-24T03:39:42;15.38;;;12.30;;
33268;SDS011;19640;50.944;5.260;2023-04-24T03:42:08;16.67;;;12.07;;
33268;SDS011;19640;50.944;5.260;2023-04-24T03:44:34;18.92;;;12.80;;
33268;SDS011;19640;50.944;5.260;2023-04-24T03:47:00;13.88;;;12.02;;
33268;SDS011;19640;50.944;5.260;2023-04-24T03:49:26;15.82;;;11.27;;
33268;SDS011;19640;50.944;5.260;2023-04-24T03:51:52;14.30;;;12.77;;
33268;SDS011;19640;50.944;5.260;2023-04-24T03:54:18;21.15;;;12.05;;
33268;SDS011;19640;50.944;5.260;2023-04-24T03:56:44;13.93;;;12.32;;
33268;SDS011;19640;50.944;5.260;2023-04-24T03:59:10;16.73;;;11.60;;
33268;SDS011;19640;50.944;5.260;2023-04-24T04:01:36;18.50;;;11.05;;
33268;SDS011;19640;50.944;5.260;2023-04-24T04:04:05;18.25;;;11.77;;
33268;SDS011;19640;50.944;5.260;2023-04-24T04:06:31;15.43;;;11.98;;
33268;SDS011;19640;50.944;5.260;2023-04-24T04:08:57;14.00;;;11.40;;
33268;SDS011;19640;50.944;5.260;2023-04-24T04:11:23;14.73;;;12.25;;
33268;SDS011;19640;50.944;5.260;2023-04-24T04:13:49;13.68;;;12.27;;
33268;SDS011;19640;50.944;5.260;2023-04-24T04:16:15;17.33;;;12.05;;
33268;SDS011;19640;50.944;5.260;2023-04-24T04:18:44;14.07;;;11.95;;
33268;SDS011;19640;50.944;5.260;2023-04-24T04:21:10;16.27;;;11.52;;
33268;SDS011;19640;50.944;5.260;2023-04-24T04:23:36;15.32;;;11.20;;
33268;SDS011;19640;50.944;5.260;2023-04-24T04:26:02;13.93;;;10.73;;
33268;SDS011;19640;50.944;5.260;2023-04-24T04:28:28;13.95;;;10.32;;
33268;SDS011;19640;50.944;5.260;2023-04-24T04:30:55;12.00;;;9.60;;
33268;SDS011;19640;50.944;5.260;2023-04-24T04:33:22;14.40;;;9.52;;
33268;SDS011;19640;50.944;5.260;2023-04-24T04:35:49;11.70;;;9.88;;
33268;SDS011;19640;50.944;5.260;2023-04-24T04:38:17;11.35;;;10.25;;
33268;SDS011;19640;50.944;5.260;2023-04-24T04:40:46;12.48;;;9.57;;
33268;SDS011;19640;50.944;5.260;2023-04-24T04:43:12;13.60;;;9.48;;
33268;SDS011;19640;50.944;5.260;2023-04-24T04:45:39;12.13;;;9.48;;
33268;SDS011;19640;50.944;5.260;2023-04-24T04:48:07;15.13;;;9.63;;
33268;SDS011;19640;50.944;5.260;2023-04-24T04:50:34;10.85;;;9.13;;
33268;SDS011;19640;50.944;5.260;2023-04-24T04:53:00;13.10;;;9.85;;
33268;SDS011;19640;50.944;5.260;2023-04-24T04:55:26;11.90;;;9.63;;
33268;SDS011;19640;50.944;5.260;2023-04-24T04:57:52;10.60;;;8.30;;
33268;SDS011;19640;50.944;5.260;2023-04-24T05:00:17;10.05;;;8.63;;
33268;SDS011;19640;50.944;5.260;2023-04-24T05:02:44;10.68;;;9.15;;
33268;SDS011;19640;50.944;5.260;2023-04-24T05:05:10;11.40;;;8.57;;
33268;SDS011;19640;50.944;5.260;2023-04-24T05:07:35;11.55;;;9.40;;
33268;SDS011;19640;50.944;5.260;2023-04-24T05:10:01;10.25;;;9.15;;
33268;SDS011;19640;50.944;5.260;2023-04-24T05:12:27;10.88;;;9.35;;
33268;SDS011;19640;50.944;5.260;2023-04-24T05:14:53;10.85;;;8.23;;
33268;SDS011;19640;50.944;5.260;2023-04-24T05:17:19;9.43;;;8.13;;
33268;SDS011;19640;50.944;5.260;2023-04-24T05:19:44;9.45;;;7.55;;
33268;SDS011;19640;50.944;5.260;2023-04-24T05:22:11;9.38;;;8.38;;
33268;SDS011;19640;50.944;5.260;2023-04-24T05:24:37;9.20;;;8.13;;
33268;SDS011;19640;50.944;5.260;2023-04-24T05:27:03;11.75;;;7.63;;
33268;SDS011;19640;50.944;5.260;2023-04-24T05:29:32;8.93;;;7.85;;
33268;SDS011;19640;50.944;5.260;2023-04-24T05:31:58;8.77;;;7.38;;
33268;SDS011;19640;50.944;5.260;2023-04-24T05:34:24;8.55;;;6.95;;
33268;SDS011;19640;50.944;5.260;2023-04-24T05:36:50;7.03;;;5.63;;
33268;SDS011;19640;50.944;5.260;2023-04-24T05:39:16;8.70;;;6.13;;
33268;SDS011;19640;50.944;5.260;2023-04-24T05:41:42;7.82;;;6.55;;
33268;SDS011;19640;50.944;5.260;2023-04-24T05:44:08;7.47;;;5.68;;
33268;SDS011;19640;50.944;5.260;2023-04-24T05:46:34;6.80;;;5.78;;
33268;SDS011;19640;50.944;5.260;2023-04-24T05:49:00;6.78;;;6.10;;
33268;SDS011;19640;50.944;5.260;2023-04-24T05:51:26;6.18;;;5.57;;
33268;SDS011;19640;50.944;5.260;2023-04-24T05:53:51;9.63;;;6.35;;
33268;SDS011;19640;50.944;5.260;2023-04-24T05:56:17;8.43;;;6.68;;
33268;SDS011;19640;50.944;5.260;2023-04-24T05:58:43;8.95;;;6.75;;
33268;SDS011;19640;50.944;5.260;2023-04-24T06:01:10;10.73;;;8.13;;
33268;SDS011;19640;50.944;5.260;2023-04-24T06:03:37;8.20;;;6.53;;
33268;SDS011;19640;50.944;5.260;2023-04-24T06:06:05;11.07;;;8.10;;
33268;SDS011;19640;50.944;5.260;2023-04-24T06:08:31;11.68;;;9.38;;
33268;SDS011;19640;50.944;5.260;2023-04-24T06:10:57;14.63;;;9.93;;
33268;SDS011;19640;50.944;5.260;2023-04-24T06:13:23;10.90;;;8.80;;
33268;SDS011;19640;50.944;5.260;2023-04-24T06:15:49;11.38;;;9.40;;
33268;SDS011;19640;50.944;5.260;2023-04-24T06:18:15;12.45;;;8.50;;
33268;SDS011;19640;50.944;5.260;2023-04-24T06:20:41;12.95;;;8.90;;
33268;SDS011;19640;50.944;5.260;2023-04-24T06:23:07;12.65;;;9.05;;
33268;SDS011;19640;50.944;5.260;2023-04-24T06:25:33;14.07;;;9.38;;
33268;SDS011;19640;50.944;5.260;2023-04-24T06:27:59;10.77;;;8.05;;
33268;SDS011;19640;50.944;5.260;2023-04-24T06:30:24;9.65;;;8.23;;
33268;SDS011;19640;50.944;5.260;2023-04-24T06:32:50;10.02;;;7.57;;
33268;SDS011;19640;50.944;5.260;2023-04-24T06:35:16;11.88;;;8.48;;
33268;SDS011;19640;50.944;5.260;2023-04-24T06:37:42;9.27;;;6.75;;
33268;SDS011;19640;50.944;5.260;2023-04-24T06:40:08;8.40;;;7.57;;
33268;SDS011;19640;50.944;5.260;2023-04-24T06:42:35;10.80;;;6.68;;
33268;SDS011;19640;50.944;5.260;2023-04-24T06:45:01;14.30;;;8.32;;
33268;SDS011;19640;50.944;5.260;2023-04-24T06:47:27;12.88;;;8.52;;
33268;SDS011;19640;50.944;5.260;2023-04-24T06:49:52;15.00;;;8.20;;
33268;SDS011;19640;50.944;5.260;2023-04-24T06:52:18;15.40;;;8.73;;
33268;SDS011;19640;50.944;5.260;2023-04-24T06:54:44;14.20;;;8.30;;
33268;SDS011;19640;50.944;5.260;2023-04-24T06:57:10;12.80;;;9.13;;
33268;SDS011;19640;50.944;5.260;2023-04-24T06:59:36;20.30;;;10.18;;
33268;SDS011;19640;50.944;5.260;2023-04-24T07:02:02;17.60;;;10.27;;
33268;SDS011;19640;50.944;5.260;2023-04-24T07:04:28;18.40;;;9.95;;
33268;SDS011;19640;50.944;5.260;2023-04-24T07:06:55;16.35;;;11.25;;
33268;SDS011;19640;50.944;5.260;2023-04-24T07:09:21;17.15;;;11.65;;
33268;SDS011;19640;50.944;5.260;2023-04-24T07:11:48;20.75;;;12.63;;
33268;SDS011;19640;50.944;5.260;2023-04-24T07:14:15;18.90;;;11.10;;
33268;SDS011;19640;50.944;5.260;2023-04-24T07:16:41;19.13;;;11.77;;
33268;SDS011;19640;50.944;5.260;2023-04-24T07:19:07;15.90;;;11.50;;
33268;SDS011;19640;50.944;5.260;2023-04-24T07:21:33;14.00;;;10.98;;
33268;SDS011;19640;50.944;5.260;2023-04-24T07:23:59;17.40;;;11.57;;
33268;SDS011;19640;50.944;5.260;2023-04-24T07:26:26;21.10;;;12.02;;
33268;SDS011;19640;50.944;5.260;2023-04-24T07:28:53;14.80;;;10.85;;
33268;SDS011;19640;50.944;5.260;2023-04-24T07:31:19;17.92;;;11.82;;
33268;SDS011;19640;50.944;5.260;2023-04-24T07:33:45;17.23;;;11.57;;
33268;SDS011;19640;50.944;5.260;2023-04-24T07:36:10;14.48;;;11.85;;
33268;SDS011;19640;50.944;5.260;2023-04-24T07:38:40;20.60;;;12.77;;
33268;SDS011;19640;50.944;5.260;2023-04-24T07:41:10;15.38;;;11.77;;
33268;SDS011;19640;50.944;5.260;2023-04-24T07:43:35;18.45;;;12.18;;
33268;SDS011;19640;50.944;5.260;2023-04-24T07:46:01;12.85;;;9.20;;
33268;SDS011;19640;50.944;5.260;2023-04-24T07:48:27;15.40;;;11.88;;
33268;SDS011;19640;50.944;5.260;2023-04-24T07:50:53;13.88;;;10.88;;
33268;SDS011;19640;50.944;5.260;2023-04-24T07:53:19;17.70;;;13.30;;
33268;SDS011;19640;50.944;5.260;2023-04-24T07:55:44;21.35;;;14.15;;
33268;SDS011;19640;50.944;5.260;2023-04-24T07:58:12;19.27;;;14.65;;
33268;SDS011;19640;50.944;5.260;2023-04-24T08:00:37;22.65;;;14.50;;
33268;SDS011;19640;50.944;5.260;2023-04-24T08:03:03;25.58;;;15.20;;
33268;SDS011;19640;50.944;5.260;2023-04-24T08:05:29;22.67;;;14.90;;
33268;SDS011;19640;50.944;5.260;2023-04-24T08:07:55;24.00;;;14.38;;
33268;SDS011;19640;50.944;5.260;2023-04-24T08:10:25;23.92;;;13.93;;
33268;SDS011;19640;50.944;5.260;2023-04-24T08:12:51;19.38;;;13.23;;
33268;SDS011;19640;50.944;5.260;2023-04-24T08:15:17;20.08;;;12.10;;
33268;SDS011;19640;50.944;5.260;2023-04-24T08:17:43;19.15;;;12.68;;
33268;SDS011;19640;50.944;5.260;2023-04-24T08:20:09;17.25;;;12.75;;
33268;SDS011;19640;50.944;5.260;2023-04-24T08:22:41;19.88;;;13.45;;
33268;SDS011;19640;50.944;5.260;2023-04-24T08:25:08;22.02;;;12.63;;
33268;SDS011;19640;50.944;5.260;2023-04-24T08:27:34;13.50;;;12.10;;
33268;SDS011;19640;50.944;5.260;2023-04-24T08:30:01;17.17;;;11.77;;
33268;SDS011;19640;50.944;5.260;2023-04-24T08:32:28;16.60;;;10.25;;
33268;SDS011;19640;50.944;5.260;2023-04-24T08:34:54;13.93;;;10.38;;
33268;SDS011;19640;50.944;5.260;2023-04-24T08:37:21;16.55;;;10.00;;
33268;SDS011;19640;50.944;5.260;2023-04-24T08:39:48;16.52;;;9.38;;
33268;SDS011;19640;50.944;5.260;2023-04-24T08:42:18;10.75;;;7.63;;
33268;SDS011;19640;50.944;5.260;2023-04-24T08:44:44;11.25;;;8.50;;
33268;SDS011;19640;50.944;5.260;2023-04-24T08:47:10;16.00;;;7.07;;
33268;SDS011;19640;50.944;5.260;2023-04-24T08:49:37;10.20;;;6.47;;
33268;SDS011;19640;50.944;5.260;2023-04-24T08:52:04;8.27;;;6.10;;
33268;SDS011;19640;50.944;5.260;2023-04-24T08:54:31;9.15;;;5.55;;
33268;SDS011;19640;50.944;5.260;2023-04-24T08:56:59;10.02;;;5.28;;
33268;SDS011;19640;50.944;5.260;2023-04-24T08:59:29;10.43;;;6.43;;
33268;SDS011;19640;50.944;5.260;2023-04-24T09:01:56;11.77;;;6.32;;
33268;SDS011;19640;50.944;5.260;2023-04-24T09:04:22;10.57;;;5.30;;
33268;SDS011;19640;50.944;5.260;2023-04-24T09:06:53;12.50;;;6.25;;
33268;SDS011;19640;50.944;5.260;2023-04-24T09:09:21;12.35;;;5.32;;
33268;SDS011;19640;50.944;5.260;2023-04-24T09:11:51;10.95;;;5.03;;
33268;SDS011;19640;50.944;5.260;2023-04-24T09:14:20;9.18;;;5.07;;
33268;SDS011;19640;50.944;5.260;2023-04-24T09:16:46;7.63;;;4.57;;
33268;SDS011;19640;50.944;5.260;2023-04-24T09:19:13;10.57;;;5.03;;
33268;SDS011;19640;50.944;5.260;2023-04-24T09:21:39;10.75;;;4.88;;
33268;SDS011;19640;50.944;5.260;2023-04-24T09:24:07;14.07;;;6.40;;
33268;SDS011;19640;50.944;5.260;2023-04-24T09:26:39;11.50;;;5.75;;
33268;SDS011;19640;50.944;5.260;2023-04-24T09:29:05;12.48;;;6.18;;
33268;SDS011;19640;50.944;5.260;2023-04-24T09:31:31;9.20;;;5.95;;
33268;SDS011;19640;50.944;5.260;2023-04-24T09:34:01;11.93;;;6.25;;
33268;SDS011;19640;50.944;5.260;2023-04-24T09:36:36;11.95;;;6.50;;
33268;SDS011;19640;50.944;5.260;2023-04-24T09:39:09;13.65;;;7.53;;
33268;SDS011;19640;50.944;5.260;2023-04-24T09:41:50;15.57;;;8.02;;
33268;SDS011;19640;50.944;5.260;2023-04-24T09:46:43;11.82;;;6.57;;
33268;SDS011;19640;50.944;5.260;2023-04-24T09:49:12;20.33;;;6.47;;
33268;SDS011;19640;50.944;5.260;2023-04-24T09:51:40;14.65;;;5.75;;
33268;SDS011;19640;50.944;5.260;2023-04-24T09:56:43;14.00;;;7.18;;
33268;SDS011;19640;50.944;5.260;2023-04-24T09:59:16;7.90;;;4.63;;
33268;SDS011;19640;50.944;5.260;2023-04-24T10:01:43;13.55;;;6.20;;
33268;SDS011;19640;50.944;5.260;2023-04-24T10:04:19;14.07;;;7.25;;
33268;SDS011;19640;50.944;5.260;2023-04-24T10:06:50;10.18;;;5.40;;
33268;SDS011;19640;50.944;5.260;2023-04-24T10:09:18;13.38;;;5.47;;
33268;SDS011;19640;50.944;5.260;2023-04-24T10:11:46;12.85;;;4.97;;
33268;SDS011;19640;50.944;5.260;2023-04-24T10:14:14;10.68;;;4.90;;
33268;SDS011;19640;50.944;5.260;2023-04-24T10:16:41;18.58;;;5.90;;
33268;SDS011;19640;50.944;5.260;2023-04-24T10:19:09;13.13;;;5.90;;
33268;SDS011;19640;50.944;5.260;2023-04-24T10:21:35;8.75;;;5.45;;
33268;SDS011;19640;50.944;5.260;2023-04-24T10:24:07;8.65;;;5.60;;
33268;SDS011;19640;50.944;5.260;2023-04-24T10:26:34;13.85;;;6.28;;
33268;SDS011;19640;50.944;5.260;2023-04-24T10:29:00;12.18;;;7.35;;
33268;SDS011;19640;50.944;5.260;2023-04-24T10:31:26;12.13;;;6.00;;
33268;SDS011;19640;50.944;5.260;2023-04-24T10:33:55;13.63;;;6.78;;
33268;SDS011;19640;50.944;5.260;2023-04-24T10:36:23;11.45;;;6.78;;
33268;SDS011;19640;50.944;5.260;2023-04-24T10:38:51;8.15;;;5.43;;
33268;SDS011;19640;50.944;5.260;2023-04-24T10:41:20;9.02;;;5.45;;
33268;SDS011;19640;50.944;5.260;2023-04-24T10:43:48;8.82;;;5.50;;
33268;SDS011;19640;50.944;5.260;2023-04-24T10:46:29;11.02;;;5.63;;
33268;SDS011;19640;50.944;5.260;2023-04-24T10:48:55;12.02;;;5.20;;
33268;SDS011;19640;50.944;5.260;2023-04-24T10:51:23;10.80;;;5.65;;
33268;SDS011;19640;50.944;5.260;2023-04-24T10:53:50;11.48;;;5.78;;
33268;SDS011;19640;50.944;5.260;2023-04-24T10:56:16;7.13;;;5.10;;
33268;SDS011;19640;50.944;5.260;2023-04-24T10:58:43;11.40;;;6.13;;
33268;SDS011;19640;50.944;5.260;2023-04-24T11:01:30;10.43;;;6.45;;
33268;SDS011;19640;50.944;5.260;2023-04-24T11:04:01;13.68;;;6.68;;
33268;SDS011;19640;50.944;5.260;2023-04-24T11:06:35;14.48;;;6.75;;
33268;SDS011;19640;50.944;5.260;2023-04-24T11:09:05;15.60;;;7.25;;
33268;SDS011;19640;50.944;5.260;2023-04-24T11:11:33;11.77;;;5.75;;
33268;SDS011;19640;50.944;5.260;2023-04-24T11:16:26;15.45;;;5.68;;
33268;SDS011;19640;50.944;5.260;2023-04-24T11:21:43;7.03;;;3.78;;
33268;SDS011;19640;50.944;5.260;2023-04-24T11:27:13;6.68;;;3.78;;
33268;SDS011;19640;50.944;5.260;2023-04-24T11:29:46;4.78;;;3.10;;
33268;SDS011;19640;50.944;5.260;2023-04-24T11:32:17;6.93;;;3.45;;
33268;SDS011;19640;50.944;5.260;2023-04-24T11:37:25;6.32;;;4.28;;
33268;SDS011;19640;50.944;5.260;2023-04-24T11:40:03;8.88;;;3.78;;
33268;SDS011;19640;50.944;5.260;2023-04-24T11:42:33;8.88;;;3.28;;
33268;SDS011;19640;50.944;5.260;2023-04-24T11:45:00;6.88;;;4.25;;
33268;SDS011;19640;50.944;5.260;2023-04-24T11:47:30;6.97;;;3.95;;
33268;SDS011;19640;50.944;5.260;2023-04-24T11:52:25;6.40;;;4.45;;
33268;SDS011;19640;50.944;5.260;2023-04-24T11:54:51;10.52;;;3.95;;
33268;SDS011;19640;50.944;5.260;2023-04-24T11:57:20;19.70;;;4.25;;
33268;SDS011;19640;50.944;5.260;2023-04-24T11:59:47;7.47;;;3.60;;
33268;SDS011;19640;50.944;5.260;2023-04-24T12:02:20;6.45;;;3.50;;
33268;SDS011;19640;50.944;5.260;2023-04-24T12:04:49;7.30;;;3.78;;
33268;SDS011;19640;50.944;5.260;2023-04-24T12:07:16;6.32;;;3.15;;
33268;SDS011;19640;50.944;5.260;2023-04-24T12:12:15;6.68;;;2.55;;
33268;SDS011;19640;50.944;5.260;2023-04-24T12:17:15;4.82;;;2.42;;
33268;SDS011;19640;50.944;5.260;2023-04-24T12:19:48;6.95;;;2.50;;
33268;SDS011;19640;50.944;5.260;2023-04-24T12:22:14;4.72;;;2.47;;
33268;SDS011;19640;50.944;5.260;2023-04-24T12:27:43;2.70;;;1.63;;
33268;SDS011;19640;50.944;5.260;2023-04-24T12:30:10;6.68;;;2.72;;
33268;SDS011;19640;50.944;5.260;2023-04-24T12:32:43;5.05;;;2.95;;
33268;SDS011;19640;50.944;5.260;2023-04-24T12:35:11;5.78;;;3.20;;
33268;SDS011;19640;50.944;5.260;2023-04-24T12:37:37;6.47;;;3.05;;
33268;SDS011;19640;50.944;5.260;2023-04-24T12:40:05;9.30;;;4.03;;
33268;SDS011;19640;50.944;5.260;2023-04-24T12:42:33;3.47;;;2.75;;
33268;SDS011;19640;50.944;5.260;2023-04-24T12:45:00;6.88;;;3.28;;
33268;SDS011;19640;50.944;5.260;2023-04-24T12:47:30;7.85;;;3.00;;
33268;SDS011;19640;50.944;5.260;2023-04-24T12:49:57;4.88;;;2.25;;
33268;SDS011;19640;50.944;5.260;2023-04-24T12:52:23;4.38;;;2.40;;
33268;SDS011;19640;50.944;5.260;2023-04-24T12:54:50;7.72;;;2.90;;
33268;SDS011;19640;50.944;5.260;2023-04-24T12:57:18;6.18;;;2.33;;
33268;SDS011;19640;50.944;5.260;2023-04-24T12:59:44;4.65;;;3.25;;
33268;SDS011;19640;50.944;5.260;2023-04-24T13:02:10;5.00;;;3.33;;
33268;SDS011;19640;50.944;5.260;2023-04-24T13:04:36;4.35;;;3.00;;
33268;SDS011;19640;50.944;5.260;2023-04-24T13:07:02;3.95;;;2.58;;
33268;SDS011;19640;50.944;5.260;2023-04-24T13:09:28;5.15;;;2.90;;
33268;SDS011;19640;50.944;5.260;2023-04-24T13:11:54;5.60;;;2.83;;
33268;SDS011;19640;50.944;5.260;2023-04-24T13:14:21;6.97;;;3.08;;
33268;SDS011;19640;50.944;5.260;2023-04-24T13:16:47;6.43;;;3.88;;
33268;SDS011;19640;50.944;5.260;2023-04-24T13:19:13;6.93;;;3.15;;
33268;SDS011;19640;50.944;5.260;2023-04-24T13:21:39;6.18;;;3.25;;
33268;SDS011;19640;50.944;5.260;2023-04-24T13:24:04;5.03;;;3.03;;
33268;SDS011;19640;50.944;5.260;2023-04-24T13:26:30;5.72;;;2.40;;
33268;SDS011;19640;50.944;5.260;2023-04-24T13:28:56;4.05;;;2.80;;
33268;SDS011;19640;50.944;5.260;2023-04-24T13:31:22;6.35;;;3.20;;
33268;SDS011;19640;50.944;5.260;2023-04-24T13:33:47;5.95;;;3.95;;
33268;SDS011;19640;50.944;5.260;2023-04-24T13:36:13;4.82;;;3.25;;
33268;SDS011;19640;50.944;5.260;2023-04-24T13:38:39;5.38;;;3.00;;
33268;SDS011;19640;50.944;5.260;2023-04-24T13:41:04;5.60;;;3.45;;
33268;SDS011;19640;50.944;5.260;2023-04-24T13:43:30;6.32;;;3.53;;
33268;SDS011;19640;50.944;5.260;2023-04-24T13:45:56;6.53;;;3.50;;
33268;SDS011;19640;50.944;5.260;2023-04-24T13:48:21;5.05;;;3.10;;
33268;SDS011;19640;50.944;5.260;2023-04-24T13:50:47;5.10;;;3.00;;
33268;SDS011;19640;50.944;5.260;2023-04-24T13:53:14;6.90;;;3.25;;
33268;SDS011;19640;50.944;5.260;2023-04-24T13:55:40;9.88;;;4.07;;
33268;SDS011;19640;50.944;5.260;2023-04-24T13:58:06;3.45;;;2.78;;
33268;SDS011;19640;50.944;5.260;2023-04-24T14:00:32;4.50;;;2.90;;
33268;SDS011;19640;50.944;5.260;2023-04-24T14:02:58;4.20;;;2.78;;
33268;SDS011;19640;50.944;5.260;2023-04-24T14:05:24;7.38;;;2.80;;
33268;SDS011;19640;50.944;5.260;2023-04-24T14:07:50;6.50;;;2.40;;
33268;SDS011;19640;50.944;5.260;2023-04-24T14:10:16;4.00;;;2.45;;
33268;SDS011;19640;50.944;5.260;2023-04-24T14:12:42;5.43;;;2.30;;
33268;SDS011;19640;50.944;5.260;2023-04-24T14:15:08;3.22;;;2.22;;
33268;SDS011;19640;50.944;5.260;2023-04-24T14:17:34;3.50;;;2.40;;
33268;SDS011;19640;50.944;5.260;2023-04-24T14:20:00;8.02;;;2.92;;
33268;SDS011;19640;50.944;5.260;2023-04-24T14:22:25;5.40;;;2.78;;
33268;SDS011;19640;50.944;5.260;2023-04-24T14:24:51;3.63;;;2.55;;
33268;SDS011;19640;50.944;5.260;2023-04-24T14:27:17;7.47;;;4.57;;
33268;SDS011;19640;50.944;5.260;2023-04-24T14:29:42;8.48;;;5.28;;
33268;SDS011;19640;50.944;5.260;2023-04-24T14:32:10;6.30;;;2.90;;
33268;SDS011;19640;50.944;5.260;2023-04-24T14:34:36;5.57;;;3.03;;
33268;SDS011;19640;50.944;5.260;2023-04-24T14:37:01;4.97;;;2.78;;
33268;SDS011;19640;50.944;5.260;2023-04-24T14:39:28;4.78;;;2.33;;
33268;SDS011;19640;50.944;5.260;2023-04-24T14:41:53;4.80;;;2.40;;
33268;SDS011;19640;50.944;5.260;2023-04-24T14:44:20;3.22;;;2.60;;
33268;SDS011;19640;50.944;5.260;2023-04-24T14:46:45;5.57;;;2.63;;
33268;SDS011;19640;50.944;5.260;2023-04-24T14:49:11;3.08;;;2.45;;
33268;SDS011;19640;50.944;5.260;2023-04-24T14:51:37;2.55;;;2.22;;
33268;SDS011;19640;50.944;5.260;2023-04-24T14:54:03;4.20;;;2.40;;
33268;SDS011;19640;50.944;5.260;2023-04-24T14:56:29;3.72;;;2.17;;